Long Island, KS (67647)

8:20 AM CDT on May 06, 2015 (GMT -0500)
Prairie View, KS | | Change Station
CLOSE
Current Station
Personal Weather Station
Location: Prairie View, KS
Elevation: 2165 ft
Nearby Weather Stations

Elev 2165 ft 39.82 °N, 99.57 °W | Updated 2 minutes ago

Overcast
Overcast
60.8 °F
Feels Like 60.8 °F
N
7.8
Wind Variable Wind from South

Today
High -- | Low -- °F
--% Chance of Precip.
Yesterday
High -- | Low -- °F
Precip. -- in
6:32 AM 8:37 PM
Waning Gibbous, 94% visible
Pressure 29.74 in
Visibility 10.0 miles
Clouds Overcast 900 ft
Dew Point 60 °F
Humidity 98%
Rainfall 0.04 in
Snow Depth Not available.
UV 0 out of 12
Pollen 8.20 out of 12
Air Quality Not available.
Flu Activity Sporadic
METAR KHDE 061255Z AUTO 14013G19KT 10SM OVC009 15/14 A2974 RMK AO2 T01520141

More Conditions Fewer Conditions

Pressure 29.74 in
Visibility 10.0 miles
Clouds Overcast 900 ft
Dew Point 60 °F
Humidity 98%
Rainfall 0.04 in
Snow Depth Not available.
UV 0 out of 12
Pollen 8.20 out of 12
Air Quality Not available.
Flu Activity Sporadic
METAR KHDE 061255Z AUTO 14013G19KT 10SM OVC009 15/14 A2974 RMK AO2 T01520141

More Conditions Fewer Conditions

10-Day Weather Forecast

Almanac

Astronomy

May. 06, 2015 Rise Set
Actual Time
Civil Twilight
Nautical Twilight
Astronomical Twilight
Moon
Length of Visible Light
Length of Day
Tomorrow will be .
, % of the Moon is Illuminated

Today's Extremes

State Highs State Lows

Community

WunderPhotos

Upload Photos

1,818,894 photos uploaded!

WunderBlogs® & News

Nearby

Air Quality

  Air Quality AQ Index Pollutant
Not available.

Snow Depth

Station Depth Elevation

Earthquake Activity

City Distance Mag. Time & Date
Minimum magnitude displayed is 2.5.

Coastal Water Temperatures

Place Temperature

Stations

Nearby Weather Stations

Station Location Temp. Windchill Dew Point Humidity Wind Precip. Elev Updated Type